Terminal Aerodrome Forecast
Issued by NWS

Home | Current Version | Previous Version | Text Only | Print | Product List | Glossary On
Versions: 1 2 3 4 5 6 7 8 9 10 11 12 13 14 15 16 17 18 19 20 21 22 23 24 25 26 27 28 29 30 31 32 33 34 35
000
FTUS45 KGJT 252338
TAFRIL
TAF
KRIL 252338Z 2600/2624 VRB03KT P6SM VCSH BKN045
      TEMPO 2601/2604 3SM -SN BR OVC015
     FM260400 29007KT 3SM -SN BR SCT015 OVC040
     FM261600 30005KT 4SM -SHSN BR BKN040=

USA.gov is the U.S. government's official web portal to all federal, state and local government web resources and services.